Airport View

Enter AWOS ICAO identifier for current METAR.

ex. KFNL

KEWB 080453Z AUTO 17006KT 10SM OVC017 19/19 A3009 RMK AO2 RAE43 SLP190 P0000 T01940189 402330161

8 Jul 2020 05:46

Phone: 508-992-0195

Other Area AWOS: KTAN - KUUU - KPYM - KFMH

TAF KFMH 072328Z 0800/0824 17008G14KT P6SM BKN009 BKN013 FM080800 18005KT P6SM OVC030 FM081000 19006KT P6SM OVC045 FM081200 19007KT P6SM OVC070